Time;durP1;ratioP1;P1;durP2;ratioP2;P2;SDS_P1;SDS_P2;PMS_P1;PMS_P2;Temp;Humidity;BMP_temperature;BMP_pressure;BME280_temperature;BME280_humidity;BME280_pressure;Samples;Min_cycle;Max_cycle;Signal;HPM_P1;HPM_P2
2023/04/25 00:02:22;;;;;;;8.65;2.22;;;2.30;99.90;;;;;;5062689;28;20040;-59
2023/04/25 00:05:01;;;;;;;10.13;2.47;;;2.30;99.90;;;;;;5068363;28;20043;-59
2023/04/25 00:07:31;;;;;;;8.95;2.10;;;2.40;99.90;;;;;;5067863;28;20102;-59
2023/04/25 00:10:03;;;;;;;8.02;2.22;;;2.30;99.90;;;;;;5048468;28;20056;-58
2023/04/25 00:12:31;;;;;;;7.72;1.70;;;2.90;99.90;;;;;;5050812;28;20512;-60
2023/04/25 00:14:59;;;;;;;3.45;1.80;;;2.40;99.90;;;;;;5066147;28;20515;-59
2023/04/25 00:17:27;;;;;;;10.35;2.22;;;2.40;99.90;;;;;;5067002;28;20040;-58
2023/04/25 00:19:58;;;;;;;10.18;1.95;;;2.50;99.90;;;;;;5048469;28;20095;-59
2023/04/25 00:22:29;;;;;;;7.95;1.60;;;2.50;99.90;;;;;;5048836;28;20060;-59
2023/04/25 00:24:59;;;;;;;6.78;2.22;;;2.60;99.90;;;;;;5068065;28;20056;-59
2023/04/25 00:27:31;;;;;;;9.27;2.00;;;2.60;99.90;;;;;;5058726;28;20045;-57
2023/04/25 00:29:59;;;;;;;4.78;1.70;;;2.60;99.90;;;;;;5050778;28;20036;-60
2023/04/25 00:32:33;;;;;;;5.28;1.77;;;2.50;99.90;;;;;;5059824;28;20530;-61
2023/04/25 00:35:03;;;;;;;5.20;1.65;;;2.60;99.90;;;;;;5067348;28;20040;-58
2023/04/25 00:37:32;;;;;;;12.00;1.50;;;2.50;99.90;;;;;;5068317;28;20408;-60
2023/04/25 00:40:00;;;;;;;10.70;1.52;;;2.50;99.90;;;;;;5066788;28;20040;-60
2023/04/25 00:42:32;;;;;;;7.55;2.00;;;2.40;99.90;;;;;;5041081;28;20045;-60
2023/04/25 00:45:01;;;;;;;6.95;1.70;;;2.40;99.90;;;;;;5043775;28;20040;-60
2023/04/25 00:47:34;;;;;;;4.55;1.33;;;2.30;99.90;;;;;;5071948;28;20048;-58
2023/04/25 00:50:06;;;;;;;8.07;1.77;;;2.20;99.90;;;;;;5062757;28;20048;-59
2023/04/25 00:52:34;;;;;;;4.55;1.45;;;2.20;99.90;;;;;;5016407;28;20049;-58
2023/04/25 00:55:02;;;;;;;6.15;1.75;;;2.10;99.90;;;;;;5027556;28;20053;-58
2023/04/25 00:57:31;;;;;;;8.15;1.33;;;2.10;99.90;;;;;;5015697;28;20065;-58
2023/04/25 00:59:59;;;;;;;8.07;1.33;;;2.00;99.90;;;;;;5029560;28;20492;-60
2023/04/25 01:02:29;;;;;;;7.85;1.73;;;1.90;99.90;;;;;;5042840;28;20052;-63
2023/04/25 01:05:00;;;;;;;3.63;1.60;;;;;;;;;;5009248;28;20049;-59
2023/04/25 01:07:29;;;;;;;9.55;1.52;;;;;;;;;;5029848;28;20044;-59
2023/04/25 01:10:01;;;;;;;10.25;1.40;;;1.80;99.90;;;;;;5023583;28;20046;-59
2023/04/25 01:12:32;;;;;;;5.13;1.50;;;1.80;99.90;;;;;;5028388;28;20509;-58
2023/04/25 01:15:03;;;;;;;10.00;1.70;;;1.70;99.90;;;;;;5043605;28;20412;-58
2023/04/25 01:17:41;;;;;;;6.28;1.50;;;1.70;99.90;;;;;;5047392;28;20048;-57
2023/04/25 01:20:10;;;;;;;7.97;1.55;;;1.70;99.90;;;;;;5029110;28;20049;-59
2023/04/25 01:22:43;;;;;;;4.03;1.10;;;1.70;99.90;;;;;;5046261;28;20052;-60
2023/04/25 01:25:11;;;;;;;8.00;1.70;;;1.70;99.90;;;;;;5046913;28;20049;-58
2023/04/25 01:27:40;;;;;;;12.07;2.33;;;1.60;99.90;;;;;;5025692;28;20056;-59
2023/04/25 01:30:12;;;;;;;6.90;2.53;;;1.60;99.90;;;;;;5012248;28;20045;-59
2023/04/25 01:32:42;;;;;;;;;;;1.60;99.90;;;;;;5013569;28;20064;-58
2023/04/25 01:35:23;;;;;;;9.80;1.38;;;1.60;99.90;;;;;;5030710;28;19921;-58
2023/04/25 01:37:54;;;;;;;9.63;1.48;;;1.60;99.90;;;;;;5026058;28;20056;-59
2023/04/25 01:40:23;;;;;;;3.13;1.52;;;1.60;99.90;;;;;;4997166;28;20042;-58
2023/04/25 01:42:51;;;;;;;4.25;1.00;;;1.60;99.90;;;;;;5022074;28;20041;-58
2023/04/25 01:45:23;;;;;;;8.25;1.73;;;1.60;99.90;;;;;;5013277;28;20084;-59
2023/04/25 01:47:54;;;;;;;10.18;1.35;;;1.50;99.90;;;;;;5027003;28;20489;-59
2023/04/25 01:50:22;;;;;;;6.65;1.67;;;1.50;99.90;;;;;;5031637;28;20041;-58
2023/04/25 01:52:50;;;;;;;17.42;2.38;;;1.50;99.90;;;;;;5013015;28;20389;-58
2023/04/25 01:55:20;;;;;;;3.13;1.17;;;1.40;99.90;;;;;;5027898;28;20053;-60
2023/04/25 01:58:03;;;;;;;6.18;1.70;;;1.40;99.90;;;;;;5031916;28;20044;-58
2023/04/25 02:00:52;;;;;;;6.40;1.50;;;1.40;99.90;;;;;;5032373;28;20053;-58
2023/04/25 02:03:20;;;;;;;11.23;1.90;;;1.30;99.90;;;;;;5032681;28;20033;-59
2023/04/25 02:05:49;;;;;;;3.17;1.25;;;1.30;99.90;;;;;;5031826;28;20037;-58
2023/04/25 02:08:18;;;;;;;4.75;1.58;;;1.30;99.90;;;;;;5000143;28;20045;-57
2023/04/25 02:10:45;;;;;;;13.47;2.20;;;1.30;99.90;;;;;;5023472;28;20501;-58
2023/04/25 02:13:18;;;;;;;12.55;1.67;;;1.20;99.90;;;;;;5035194;28;20041;-58
2023/04/25 02:16:00;;;;;;;7.97;1.80;;;1.20;99.90;;;;;;5054042;28;20535;-59
2023/04/25 02:18:31;;;;;;;10.68;1.73;;;1.20;99.90;;;;;;5035648;28;20048;-59
2023/04/25 02:21:01;;;;;;;4.45;1.30;;;1.10;99.90;;;;;;5035822;28;20049;-58
2023/04/25 02:23:29;;;;;;;8.30;1.50;;;1.10;99.90;;;;;;5034789;28;20057;-58
2023/04/25 02:25:59;;;;;;;8.25;1.20;;;1.10;99.90;;;;;;5035991;28;20037;-59
2023/04/25 02:28:27;;;;;;;6.72;1.70;;;1.10;99.90;;;;;;5028738;28;20048;-58
2023/04/25 02:30:55;;;;;;;8.35;1.52;;;1.00;99.90;;;;;;5053954;28;20049;-59
2023/04/25 02:33:24;;;;;;;9.80;2.17;;;1.00;99.90;;;;;;5035999;28;20048;-58
2023/04/25 02:35:52;;;;;;;5.97;1.95;;;0.90;99.90;;;;;;5023465;28;20041;-58
2023/04/25 02:38:22;;;;;;;5.40;1.20;;;0.90;99.90;;;;;;5053857;28;20045;-59
2023/04/25 02:40:49;;;;;;;7.90;1.90;;;0.90;99.90;;;;;;5034995;28;20041;-58
2023/04/25 02:43:18;;;;;;;2.22;1.55;;;0.80;99.90;;;;;;5053552;28;20056;-59
2023/04/25 02:45:45;;;;;;;4.18;1.42;;;0.80;99.90;;;;;;5038736;28;20037;-59
2023/04/25 02:48:13;;;;;;;3.90;1.10;;;0.80;99.90;;;;;;5052887;28;20056;-60
2023/04/25 02:50:44;;;;;;;7.72;1.60;;;0.80;99.90;;;;;;5053305;28;20056;-59
2023/04/25 02:53:12;;;;;;;12.82;1.88;;;0.80;99.90;;;;;;5052522;28;20045;-58
2023/04/25 02:55:48;;;;;;;7.40;1.73;;;0.70;99.90;;;;;;5026958;28;20488;-58
2023/04/25 02:58:19;;;;;;;5.78;1.67;;;2.30;99.90;;;;;;5034357;28;20041;-59
2023/04/25 03:00:50;;;;;;;11.23;1.73;;;0.70;99.90;;;;;;5033211;28;20036;-58
2023/04/25 03:03:21;;;;;;;5.93;1.33;;;0.60;99.90;;;;;;5020630;28;20044;-58
2023/04/25 03:05:51;;;;;;;3.58;1.25;;;0.60;99.90;;;;;;5034553;28;20049;-58
2023/04/25 03:08:32;;;;;;;5.07;1.60;;;0.60;99.90;;;;;;5031986;28;20040;-59
2023/04/25 03:11:00;;;;;;;7.78;1.63;;;0.60;99.90;;;;;;5031001;28;20044;-59
2023/04/25 03:13:29;;;;;;;2.72;0.95;;;0.60;99.90;;;;;;5035207;28;20052;-59
2023/04/25 03:15:58;;;;;;;9.82;1.40;;;0.60;99.90;;;;;;5033411;28;20396;-58
2023/04/25 03:18:26;;;;;;;5.80;1.60;;;0.60;99.90;;;;;;5034154;28;20037;-58
2023/04/25 03:20:56;;;;;;;9.63;1.73;;;0.50;99.90;;;;;;5034553;28;20378;-59
2023/04/25 03:23:24;;;;;;;10.63;2.08;;;0.50;99.90;;;;;;5018661;28;20484;-59
2023/04/25 03:25:52;;;;;;;8.23;1.90;;;0.40;99.90;;;;;;5033785;28;20496;-58
2023/04/25 03:28:20;;;;;;;6.82;2.55;;;0.50;99.90;;;;;;5017960;28;20049;-58
2023/04/25 03:30:52;;;;;;;17.27;3.08;;;0.40;99.90;;;;;;5031277;28;20033;-58
2023/04/25 03:33:20;;;;;;;8.32;2.38;;;0.40;99.90;;;;;;5027739;28;20052;-60
2023/04/25 03:35:49;;;;;;;;;;;0.40;99.90;;;;;;5033694;28;20446;-59
2023/04/25 03:38:19;;;;;;;;;;;0.40;99.90;;;;;;5029878;28;19928;-59
2023/04/25 03:40:47;;;;;;;7.20;1.85;;;0.30;99.90;;;;;;5016745;28;19929;-58
2023/04/25 03:43:22;;;;;;;5.80;1.88;;;0.30;99.90;;;;;;5034608;28;20396;-59
2023/04/25 03:45:57;;;;;;;15.52;2.10;;;0.30;99.90;;;;;;5014995;28;20535;-58
2023/04/25 03:48:26;;;;;;;8.05;2.03;;;0.20;99.90;;;;;;5014641;28;20056;-59
2023/04/25 03:50:55;;;;;;;8.02;2.10;;;0.30;99.90;;;;;;5047844;28;20061;-60
2023/04/25 03:53:23;;;;;;;8.98;1.50;;;0.20;99.90;;;;;;5034528;28;20044;-58
2023/04/25 03:56:20;;;;;;;6.30;1.50;;;0.20;99.90;;;;;;4965379;28;20081;-59
2023/04/25 03:58:59;;;;;;;8.18;1.52;;;0.20;99.90;;;;;;5014492;28;20045;-59
2023/04/25 04:01:29;;;;;;;6.13;1.33;;;0.20;99.90;;;;;;5026387;28;20041;-59
2023/04/25 04:03:57;;;;;;;6.13;1.42;;;0.10;99.90;;;;;;5014405;28;20055;-59
2023/04/25 04:06:26;;;;;;;6.47;2.03;;;0.20;99.90;;;;;;5028802;28;20056;-59
2023/04/25 04:09:03;;;;;;;3.70;2.00;;;0.10;99.90;;;;;;5014204;28;20049;-57
2023/04/25 04:11:36;;;;;;;6.60;2.00;;;0.10;99.90;;;;;;5014432;28;20049;-59
2023/04/25 04:14:09;;;;;;;5.90;2.00;;;0.10;99.90;;;;;;5033980;28;20053;-59
2023/04/25 04:16:42;;;;;;;3.10;1.42;;;0.10;99.90;;;;;;5026561;28;20056;-58
2023/04/25 04:19:10;;;;;;;4.50;1.50;;;;;;;;;;5025740;28;20377;-59
2023/04/25 04:21:43;;;;;;;7.13;1.80;;;0.10;99.90;;;;;;5014301;28;20049;-59
2023/04/25 04:24:11;;;;;;;7.25;1.98;;;0.10;99.90;;;;;;5039339;28;20037;-58
2023/04/25 04:26:50;;;;;;;8.82;1.92;;;0.00;99.90;;;;;;5001727;28;20061;-59
2023/04/25 04:29:36;;;;;;;5.63;1.85;;;0.00;99.90;;;;;;5036012;28;20040;-58
2023/04/25 04:32:25;;;;;;;11.20;1.90;;;0.00;99.90;;;;;;5033633;28;20056;-59
2023/04/25 04:34:57;;;;;;;6.15;1.40;;;-0.10;99.90;;;;;;5032554;28;20481;-58
2023/04/25 04:37:26;;;;;;;3.63;2.17;;;-0.10;99.90;;;;;;5016966;28;20037;-59
2023/04/25 04:39:53;;;;;;;6.57;1.80;;;-0.10;99.90;;;;;;5014769;28;20049;-59
2023/04/25 04:42:40;;;;;;;6.13;1.80;;;-0.10;99.90;;;;;;5031441;28;20399;-59
2023/04/25 04:45:47;;;;;;;7.88;1.98;;;-0.20;99.90;;;;;;4970096;28;20050;-58
2023/04/25 04:48:47;;;;;;;10.48;1.83;;;-0.20;99.90;;;;;;4977733;28;20046;-59
2023/04/25 04:51:45;;;;;;;20.50;2.33;;;-0.20;99.90;;;;;;5027085;28;20428;-58
2023/04/25 04:54:32;;;;;;;5.45;1.85;;;-0.20;99.90;;;;;;5065974;28;20036;-57
2023/04/25 04:57:20;;;;;;;5.35;1.92;;;-0.30;99.90;;;;;;5034800;28;20048;-59
2023/04/25 05:00:10;;;;;;;;;;;-0.20;99.90;;;;;;5045254;28;20041;-57
2023/04/25 05:02:41;;;;;;;11.27;2.30;;;-0.20;99.90;;;;;;5054592;28;19924;-58
2023/04/25 05:05:35;;;;;;;7.28;1.73;;;-0.30;99.90;;;;;;4981610;28;20057;-61
2023/04/25 05:08:17;;;;;;;6.35;1.85;;;-0.30;99.90;;;;;;4966051;28;20038;-58
2023/04/25 05:11:15;;;;;;;9.07;2.15;;;-0.30;99.90;;;;;;5055983;28;20057;-58
2023/04/25 05:14:06;;;;;;;7.50;2.30;;;2.60;99.90;;;;;;5042095;28;20053;-60
2023/04/25 05:17:00;;;;;;;8.73;2.35;;;-0.20;99.90;;;;;;5055068;28;20052;-60
2023/04/25 05:19:51;;;;;;;3.85;1.83;;;-0.20;99.90;;;;;;5019022;28;20060;-58
2023/04/25 05:22:45;;;;;;;8.68;1.98;;;-0.20;99.90;;;;;;5052144;28;20508;-59
2023/04/25 05:25:20;;;;;;;5.82;1.45;;;-0.20;99.90;;;;;;5044838;28;20068;-60
2023/04/25 05:28:05;;;;;;;9.55;1.85;;;-0.20;99.90;;;;;;5055330;28;20053;-59
2023/04/25 05:31:11;;;;;;;12.48;2.55;;;-0.20;99.90;;;;;;5026993;28;20056;-58
2023/04/25 05:33:54;;;;;;;12.00;1.95;;;-0.20;99.90;;;;;;5040410;28;20408;-59
2023/04/25 05:36:25;;;;;;;6.35;1.90;;;-0.20;99.90;;;;;;5046093;28;20048;-59
2023/04/25 05:38:53;;;;;;;13.80;2.08;;;-0.10;99.90;;;;;;5017494;28;20049;-59
2023/04/25 05:41:21;;;;;;;10.27;2.05;;;-0.10;99.90;;;;;;5053673;28;20044;-59
2023/04/25 05:44:10;;;;;;;10.60;2.57;;;-0.10;99.90;;;;;;5050571;28;20519;-61
2023/04/25 05:46:59;;;;;;;4.72;2.00;;;0.00;99.90;;;;;;5053473;28;20293;-57
2023/04/25 05:49:45;;;;;;;11.38;3.20;;;0.00;99.90;;;;;;5036412;28;20408;-59
2023/04/25 05:52:24;;;;;;;11.63;3.60;;;0.00;99.90;;;;;;5050063;28;20048;-59
2023/04/25 05:55:11;;;;;;;8.45;2.78;;;0.00;99.90;;;;;;5069704;28;20424;-59
2023/04/25 05:57:44;;;;;;;9.57;2.05;;;0.10;99.90;;;;;;5060426;28;20140;-60
2023/04/25 06:00:18;;;;;;;13.00;3.38;;;0.10;99.90;;;;;;5061935;28;20408;-57
2023/04/25 06:02:52;;;;;;;6.82;2.30;;;0.20;99.90;;;;;;5032494;28;20041;-57
2023/04/25 06:05:20;;;;;;;13.10;2.97;;;0.30;99.90;;;;;;5055702;28;20119;-59
2023/04/25 06:07:49;;;;;;;11.93;3.80;;;0.30;99.90;;;;;;5049323;28;20041;-59
2023/04/25 06:10:20;;;;;;;8.68;2.78;;;0.30;99.90;;;;;;5061131;28;20044;-58
2023/04/25 06:12:48;;;;;;;10.13;3.63;;;0.50;99.90;;;;;;5066443;28;20083;-59
2023/04/25 06:15:19;;;;;;;21.05;4.40;;;0.50;99.90;;;;;;5048874;28;20059;-59
2023/04/25 06:17:50;;;;;;;14.10;3.40;;;0.60;99.90;;;;;;5052093;28;20068;-62
2023/04/25 06:20:19;;;;;;;12.68;3.35;;;0.60;99.90;;;;;;5053951;28;20044;-59
2023/04/25 06:22:47;;;;;;;10.20;3.42;;;0.70;99.90;;;;;;5073308;28;20036;-60
2023/04/25 06:25:18;;;;;;;9.95;2.90;;;0.90;99.90;;;;;;5063999;28;20524;-63
2023/04/25 06:27:46;;;;;;;11.73;3.45;;;0.90;99.90;;;;;;5041331;28;20045;-58
2023/04/25 06:30:18;;;;;;;14.23;2.85;;;0.90;99.90;;;;;;5063038;28;20040;-62
2023/04/25 06:32:46;;;;;;;10.65;3.15;;;1.10;99.90;;;;;;5058820;28;20049;-61
2023/04/25 06:35:14;;;;;;;13.65;2.53;;;1.10;99.90;;;;;;5028459;28;20042;-60
2023/04/25 06:37:41;;;;;;;10.23;2.60;;;1.20;99.90;;;;;;5037080;28;20056;-59
2023/04/25 06:40:10;;;;;;;11.13;2.78;;;1.30;99.90;;;;;;5060092;28;20041;-60
2023/04/25 06:42:38;;;;;;;7.95;2.85;;;1.30;99.90;;;;;;5062562;28;20047;-59
2023/04/25 06:45:28;;;;;;;7.28;2.70;;;1.40;99.90;;;;;;5029973;28;20061;-60
2023/04/25 06:47:57;;;;;;;10.45;2.92;;;1.50;99.90;;;;;;5063561;28;20045;-60
2023/04/25 06:50:27;;;;;;;6.70;2.65;;;1.70;99.90;;;;;;5042093;28;20061;-60
2023/04/25 06:52:56;;;;;;;9.10;2.60;;;;;;;;;;5026652;28;20040;-59
2023/04/25 06:55:30;;;;;;;8.00;2.22;;;1.80;99.90;;;;;;5018090;28;20037;-59
2023/04/25 06:58:18;;;;;;;5.63;1.77;;;2.00;99.90;;;;;;5032951;28;20056;-59
2023/04/25 07:00:55;;;;;;;9.23;1.77;;;2.30;99.90;;;;;;5019263;28;20064;-62
2023/04/25 07:03:26;;;;;;;4.72;1.25;;;2.40;99.90;;;;;;5028768;28;20040;-60
2023/04/25 07:06:10;;;;;;;11.95;2.08;;;2.50;99.90;;;;;;5018148;28;20428;-62
2023/04/25 07:08:42;;;;;;;15.38;3.40;;;2.70;99.90;;;;;;5003058;28;20041;-59
2023/04/25 07:11:20;;;;;;;8.25;1.65;;;2.70;99.90;;;;;;5008332;28;20057;-60
2023/04/25 07:13:55;;;;;;;2.53;0.80;;;2.90;99.90;;;;;;5039557;28;20535;-60
2023/04/25 07:16:25;;;;;;;5.68;1.25;;;2.90;99.90;;;;;;5021023;28;20537;-60
2023/04/25 07:18:53;;;;;;;4.25;0.82;;;3.10;99.90;;;;;;5008250;28;20053;-59
2023/04/25 07:21:21;;;;;;;3.83;1.48;;;3.40;99.90;;;;;;5010041;28;20053;-59
2023/04/25 07:23:55;;;;;;;5.28;1.52;;;3.50;99.90;;;;;;5014105;28;20540;-59
2023/04/25 07:26:28;;;;;;;8.05;1.13;;;3.50;99.90;;;;;;5009701;28;20489;-59
2023/04/25 07:29:14;;;;;;;4.03;1.27;;;3.60;99.90;;;;;;5008425;28;20509;-59
2023/04/25 07:31:45;;;;;;;10.20;2.25;;;3.70;99.90;;;;;;5009733;28;20049;-62
2023/04/25 07:34:13;;;;;;;3.63;1.20;;;3.90;99.90;;;;;;5017446;28;20060;-59
2023/04/25 07:36:40;;;;;;;6.15;1.88;;;3.90;99.90;;;;;;5023922;28;20045;-59
2023/04/25 07:39:09;;;;;;;5.65;1.63;;;4.00;99.90;;;;;;5029143;28;20056;-58
2023/04/25 07:41:36;;;;;;;10.98;1.52;;;4.10;99.90;;;;;;5011316;28;20061;-58
2023/04/25 07:44:06;;;;;;;4.95;1.48;;;4.20;99.90;;;;;;5028162;28;20048;-58
2023/04/25 07:46:35;;;;;;;4.13;1.20;;;4.30;99.90;;;;;;5030314;28;20052;-59
2023/04/25 07:49:04;;;;;;;4.78;1.33;;;4.40;99.90;;;;;;5006189;28;20061;-59
2023/04/25 07:51:32;;;;;;;5.70;1.42;;;4.50;99.90;;;;;;5033510;28;20071;-59
2023/04/25 07:54:06;;;;;;;9.07;1.38;;;4.50;99.90;;;;;;5065684;28;20044;-59
2023/04/25 07:56:37;;;;;;;9.13;1.45;;;4.70;99.90;;;;;;5057818;28;20041;-58
2023/04/25 07:59:19;;;;;;;5.68;1.70;;;4.70;99.90;;;;;;5047724;28;20208;-59
2023/04/25 08:01:47;;;;;;;14.07;2.47;;;4.70;99.90;;;;;;5048843;28;20045;-59
2023/04/25 08:04:17;;;;;;;7.43;1.60;;;4.80;99.90;;;;;;5054295;28;20085;-59
2023/04/25 08:06:56;;;;;;;11.75;1.73;;;4.90;99.90;;;;;;5060544;28;20036;-63
2023/04/25 08:09:27;;;;;;;4.93;1.42;;;4.90;99.90;;;;;;5066956;28;20049;-59
2023/04/25 08:11:56;;;;;;;4.72;1.20;;;5.00;99.90;;;;;;5039219;28;20052;-59
2023/04/25 08:14:35;;;;;;;8.45;1.65;;;5.10;99.90;;;;;;5055789;28;20048;-59
2023/04/25 08:17:04;;;;;;;8.20;1.75;;;5.20;99.90;;;;;;5067356;28;20048;-59
2023/04/25 08:19:33;;;;;;;;;;;5.30;99.90;;;;;;5067874;28;20531;-59
2023/04/25 08:22:02;;;;;;;10.23;1.40;;;5.30;99.90;;;;;;5063888;28;19929;-59
2023/04/25 08:24:41;;;;;;;6.78;1.65;;;5.40;99.90;;;;;;5067344;28;20047;-60
2023/04/25 08:27:09;;;;;;;12.45;1.52;;;5.60;99.90;;;;;;5067020;28;20500;-58
2023/04/25 08:29:37;;;;;;;4.55;1.15;;;5.50;99.90;;;;;;5050753;28;20048;-58
2023/04/25 08:32:05;;;;;;;2.03;0.70;;;5.60;99.90;;;;;;5063273;28;20074;-58
2023/04/25 08:34:37;;;;;;;2.30;0.75;;;5.70;99.90;;;;;;5066704;28;20032;-57
2023/04/25 08:37:05;;;;;;;5.63;1.38;;;5.80;99.90;;;;;;5063910;28;20051;-59
2023/04/25 08:39:41;;;;;;;15.23;2.70;;;5.90;99.90;;;;;;5046974;28;20044;-58
2023/04/25 08:42:29;;;;;;;6.47;1.40;;;5.90;99.90;;;;;;5060540;28;20059;-58
2023/04/25 08:45:00;;;;;;;10.32;1.23;;;6.10;99.90;;;;;;5053877;28;20690;-59
2023/04/25 08:47:37;;;;;;;3.72;1.00;;;6.20;99.90;;;;;;5062744;28;20052;-59
2023/04/25 08:50:06;;;;;;;2.10;0.90;;;6.20;99.90;;;;;;5046747;28;20048;-59
2023/04/25 08:52:44;;;;;;;5.80;1.33;;;6.30;99.90;;;;;;5035633;28;20401;-59
2023/04/25 08:55:15;;;;;;;2.15;0.60;;;6.40;99.90;;;;;;5048177;28;20045;-59
2023/04/25 08:57:44;;;;;;;1.42;1.13;;;6.50;99.90;;;;;;5032224;28;20048;-59
2023/04/25 09:00:14;;;;;;;7.63;0.83;;;6.50;99.90;;;;;;5061015;28;20048;-59
2023/04/25 09:02:44;;;;;;;6.35;1.08;;;6.60;99.90;;;;;;5043463;28;20293;-60
2023/04/25 09:05:13;;;;;;;5.00;0.70;;;6.70;99.90;;;;;;5050397;28;20578;-59
2023/04/25 09:07:42;;;;;;;4.10;1.00;;;;;;;;;;5036143;28;20049;-59
2023/04/25 09:10:09;;;;;;;5.13;0.80;;;6.80;99.90;;;;;;5066245;28;20053;-58
2023/04/25 09:12:39;;;;;;;10.30;1.52;;;7.00;99.90;;;;;;5039571;28;20045;-60
2023/04/25 09:15:12;;;;;;;2.28;0.75;;;7.00;99.90;;;;;;5044984;28;20053;-60
2023/04/25 09:18:00;;;;;;;5.28;1.10;;;7.10;99.90;;;;;;5068186;28;20036;-60
2023/04/25 09:20:44;;;;;;;0.95;0.50;;;7.10;99.90;;;;;;5053205;28;20048;-58
2023/04/25 09:23:15;;;;;;;4.72;0.98;;;7.20;99.90;;;;;;5044861;28;20415;-57
2023/04/25 09:25:43;;;;;;;3.95;1.02;;;9.20;99.90;;;;;;5037530;28;20048;-58
2023/04/25 09:28:11;;;;;;;3.08;0.77;;;7.40;99.90;;;;;;5052928;28;20369;-59
2023/04/25 09:30:38;;;;;;;3.15;0.88;;;7.60;99.90;;;;;;5066271;28;20059;-58
2023/04/25 09:33:13;;;;;;;4.35;0.85;;;7.60;99.90;;;;;;5050402;28;20668;-58
2023/04/25 09:35:55;;;;;;;3.33;0.98;;;7.80;99.90;;;;;;5053817;28;20036;-58
2023/04/25 09:38:45;;;;;;;2.60;0.93;;;7.80;99.90;;;;;;5055080;28;20412;-60
2023/04/25 09:41:29;;;;;;;5.47;0.77;;;7.90;99.90;;;;;;5049730;28;20045;-57
2023/04/25 09:44:00;;;;;;;2.67;0.80;;;8.00;99.90;;;;;;5053257;28;20045;-58
2023/04/25 09:46:36;;;;;;;1.98;0.80;;;8.10;99.90;;;;;;5053588;28;20052;-59
2023/04/25 09:49:08;;;;;;;3.97;1.30;;;8.10;99.90;;;;;;5037772;28;20059;-58
2023/04/25 09:51:57;;;;;;;3.88;1.05;;;8.30;99.90;;;;;;5059062;28;20048;-59
2023/04/25 09:54:29;;;;;;;5.28;0.90;;;8.40;99.90;;;;;;5050407;28;20052;-58
2023/04/25 09:57:13;;;;;;;4.93;0.90;;;8.50;99.90;;;;;;5035229;28;20063;-60
2023/04/25 09:59:47;;;;;;;3.47;1.55;;;8.70;99.90;;;;;;5063229;28;20048;-61
2023/04/25 10:02:21;;;;;;;3.83;1.13;;;8.90;99.90;;;;;;5057014;28;20044;-59
2023/04/25 10:04:54;;;;;;;3.42;1.10;;;9.00;99.90;;;;;;5066413;28;20051;-59
2023/04/25 10:07:38;;;;;;;4.40;1.00;;;10.10;99.90;;;;;;5067028;28;20041;-58
2023/04/25 10:10:12;;;;;;;2.08;0.93;;;9.20;99.90;;;;;;5056346;28;20531;-57
2023/04/25 10:12:42;;;;;;;7.68;1.30;;;9.40;99.90;;;;;;5070480;28;20503;-58
2023/04/25 10:15:11;;;;;;;4.72;1.17;;;9.40;99.90;;;;;;5062158;28;20068;-58
2023/04/25 10:17:39;;;;;;;5.65;1.52;;;9.50;99.90;;;;;;5049642;28;20053;-59
2023/04/25 10:20:10;;;;;;;3.17;1.15;;;9.60;99.90;;;;;;5069378;28;20057;-59
2023/04/25 10:22:43;;;;;;;15.60;1.10;;;9.60;99.90;;;;;;5068978;28;20044;-61
2023/04/25 10:25:12;;;;;;;4.28;1.38;;;9.70;99.90;;;;;;5056040;28;20060;-59
2023/04/25 10:27:40;;;;;;;2.70;0.80;;;9.80;99.90;;;;;;5061898;28;20055;-59
2023/04/25 10:30:14;;;;;;;1.90;1.00;;;9.80;99.90;;;;;;5061070;28;20297;-58
2023/04/25 10:32:43;;;;;;;6.22;2.20;;;9.80;99.90;;;;;;5067000;28;20491;-58
2023/04/25 10:35:15;;;;;;;5.93;1.10;;;9.90;99.90;;;;;;5066364;28;20411;-59
2023/04/25 10:38:04;;;;;;;3.97;1.05;;;10.00;99.90;;;;;;5067547;28;20040;-58
2023/04/25 10:40:32;;;;;;;2.92;0.90;;;10.10;99.20;;;;;;5045710;28;20052;-57
2023/04/25 10:43:33;;;;;;;4.18;1.48;;;10.10;99.10;;;;;;5066908;28;20053;-58
2023/04/25 10:46:01;;;;;;;5.20;1.20;;;10.10;99.30;;;;;;5069286;28;20045;-58
2023/04/25 10:48:30;;;;;;;2.70;1.17;;;10.00;99.90;;;;;;5056058;28;20049;-58
2023/04/25 10:51:30;;;;;;;3.83;1.63;;;10.10;99.90;;;;;;5047398;28;20103;-58
2023/04/25 10:54:17;;;;;;;3.30;1.73;;;10.30;98.80;;;;;;5053337;28;20056;-58
2023/04/25 10:56:45;;;;;;;4.90;1.00;;;10.30;96.70;;;;;;5028636;28;20394;-57
2023/04/25 10:59:15;;;;;;;4.13;1.17;;;10.20;97.00;;;;;;5046133;28;20055;-59
2023/04/25 11:01:45;;;;;;;4.72;0.85;;;10.10;98.00;;;;;;5046756;28;20362;-58
2023/04/25 11:04:23;;;;;;;6.40;1.38;;;10.30;97.70;;;;;;5058703;28;20049;-59
2023/04/25 11:07:09;;;;;;;4.78;1.10;;;10.40;97.50;;;;;;5048960;28;20048;-58
2023/04/25 11:09:40;;;;;;;7.20;1.70;;;10.40;97.80;;;;;;5050835;28;20408;-62
2023/04/25 11:12:09;;;;;;;3.47;1.20;;;10.30;96.90;;;;;;5050581;28;20048;-58
2023/04/25 11:14:37;;;;;;;6.72;1.15;;;10.20;95.80;;;;;;5063031;28;20067;-59
2023/04/25 11:17:05;;;;;;;4.32;1.13;;;10.20;96.60;;;;;;5069825;28;20385;-58
2023/04/25 11:19:33;;;;;;;5.07;1.20;;;10.20;96.60;;;;;;5036845;28;20060;-59
2023/04/25 11:22:02;;;;;;;2.55;1.60;;;10.30;97.00;;;;;;5046633;28;20504;-58
2023/04/25 11:24:31;;;;;;;7.50;1.90;;;10.80;97.40;;;;;;5050387;28;20053;-59
2023/04/25 11:27:03;;;;;;;9.40;1.45;;;10.80;97.50;;;;;;5045103;28;20049;-59
2023/04/25 11:29:33;;;;;;;4.45;1.35;;;10.90;95.20;;;;;;5048411;28;20393;-59
2023/04/25 11:32:02;;;;;;;5.63;1.80;;;11.00;95.60;;;;;;5068272;28;20260;-60
2023/04/25 11:34:32;;;;;;;6.22;1.95;;;11.10;95.90;;;;;;5066457;28;20051;-59
2023/04/25 11:37:04;;;;;;;3.17;1.45;;;11.40;95.60;;;;;;5066854;28;20056;-62
2023/04/25 11:39:31;;;;;;;2.67;1.15;;;11.80;96.10;;;;;;5057161;28;20045;-59
2023/04/25 11:42:01;;;;;;;5.30;1.80;;;12.20;90.00;;;;;;5050035;28;20045;-59
2023/04/25 11:44:31;;;;;;;17.27;2.33;;;12.30;88.40;;;;;;5064943;28;20060;-58
2023/04/25 11:46:59;;;;;;;8.60;1.55;;;12.30;88.70;;;;;;5048909;28;20049;-59
2023/04/25 11:49:31;;;;;;;3.80;1.80;;;12.00;86.40;;;;;;5047431;28;20040;-59
2023/04/25 11:51:59;;;;;;;10.13;3.85;;;12.00;87.30;;;;;;5036143;28;20056;-62
2023/04/25 11:54:27;;;;;;;6.43;2.20;;;11.90;86.90;;;;;;5029535;28;20041;-58
2023/04/25 11:56:54;;;;;;;4.57;1.35;;;12.00;92.10;;;;;;5045639;28;20056;-59
2023/04/25 11:59:29;;;;;;;4.97;1.60;;;12.10;92.50;;;;;;5026711;28;20060;-58
2023/04/25 12:01:57;;;;;;;4.88;1.90;;;12.60;93.10;;;;;;5040925;28;20048;-59
2023/04/25 12:04:25;;;;;;;4.10;1.73;;;13.10;88.60;;;;;;5048642;28;20448;-61
2023/04/25 12:06:55;;;;;;;5.53;1.85;;;14.00;87.80;;;;;;5048636;28;20037;-60
2023/04/25 12:09:31;;;;;;;4.32;1.88;;;14.00;87.40;;;;;;5025737;28;20394;-60
2023/04/25 12:12:03;;;;;;;8.30;2.60;;;14.20;80.10;;;;;;5024169;28;20048;-62
2023/04/25 12:14:33;;;;;;;4.85;2.10;;;13.60;79.00;;;;;;5043012;28;20052;-62
2023/04/25 12:17:03;;;;;;;7.05;2.17;;;14.00;79.60;;;;;;5047698;28;20060;-60
2023/04/25 12:19:33;;;;;;;4.32;1.90;;;13.60;79.10;;;;;;5029902;28;20053;-61
2023/04/25 12:22:03;;;;;;;5.93;2.60;;;13.10;77.70;;;;;;5037075;28;20041;-60
2023/04/25 12:24:34;;;;;;;5.45;2.40;;;12.70;78.30;;;;;;5031089;28;20049;-59
2023/04/25 12:27:10;;;;;;;8.68;1.80;;;12.30;80.70;;;;;;5042458;28;20056;-60
2023/04/25 12:29:38;;;;;;;5.75;2.10;;;12.50;89.00;;;;;;5025118;28;20045;-59
2023/04/25 12:32:17;;;;;;;9.82;1.80;;;13.60;81.40;;;;;;5025801;28;20289;-63
2023/04/25 12:34:45;;;;;;;6.30;2.13;;;13.60;80.60;;;;;;5028503;28;20068;-61
2023/04/25 12:37:13;;;;;;;3.90;2.10;;;14.20;73.10;;;;;;5048344;28;20056;-61
2023/04/25 12:39:40;;;;;;;3.85;2.20;;;14.80;76.00;;;;;;5032665;28;20054;-63
2023/04/25 12:42:11;;;;;;;6.53;2.40;;;15.50;74.90;;;;;;5038008;28;20053;-61
2023/04/25 12:44:40;;;;;;;5.50;2.25;;;16.00;71.50;;;;;;5047891;28;20053;-60
2023/04/25 12:47:08;;;;;;;5.70;2.00;;;16.50;71.70;;;;;;5048464;28;20507;-59
2023/04/25 12:49:36;;;;;;;3.97;2.33;;;16.70;65.10;;;;;;5013870;28;20484;-60
2023/04/25 12:52:03;;;;;;;3.67;1.75;;;16.70;63.30;;;;;;5045769;28;20049;-60
2023/04/25 12:54:31;;;;;;;5.45;2.70;;;16.50;63.30;;;;;;5042684;28;20052;-59
2023/04/25 12:56:59;;;;;;;11.90;2.78;;;16.20;64.00;;;;;;5042642;28;20053;-58
2023/04/25 12:59:27;;;;;;;8.35;2.15;;;15.90;64.10;;;;;;5027667;28;20053;-59
2023/04/25 13:01:55;;;;;;;5.53;2.88;;;15.30;63.50;;;;;;5035572;28;20052;-59
2023/04/25 13:04:23;;;;;;;7.20;2.85;;;15.00;64.30;;;;;;5036475;28;20048;-59
2023/04/25 13:06:51;;;;;;;2.65;2.00;;;14.20;64.70;;;;;;5040367;28;20477;-59
2023/04/25 13:09:18;;;;;;;6.07;2.75;;;13.80;65.80;;;;;;5028833;28;20052;-58
2023/04/25 13:11:48;;;;;;;7.75;2.78;;;13.10;66.70;;;;;;5037407;28;20654;-59
2023/04/25 13:14:19;;;;;;;4.13;2.28;;;13.00;67.40;;;;;;5041948;28;20049;-59
2023/04/25 13:16:47;;;;;;;7.43;2.85;;;12.70;68.20;;;;;;5030441;28;20052;-59
2023/04/25 13:19:14;;;;;;;5.05;2.40;;;12.70;69.00;;;;;;5025512;28;20552;-60
2023/04/25 13:21:45;;;;;;;6.72;2.50;;;12.60;67.30;;;;;;5037539;28;20038;-60
2023/04/25 13:24:13;;;;;;;6.72;2.70;;;12.50;69.80;;;;;;5036067;28;20045;-58
2023/04/25 13:26:40;;;;;;;6.70;2.85;;;12.50;70.50;;;;;;5024981;28;20489;-57